Buoy 41560

sailwx.info

Track history (hours):
 
Tides and Currents Weather Stations Pressure Air Temp Water Temp Dewpoint Dewpoint Depression Visibility Wind Speed Wind Dir Waves Ship Positions

Drifting buoy 41560

Last reported at 2014-Oct-01 04:00 UTC. Time now 2014-Oct-01 06:01 UTC.
Position N 38°24' W 021°19'.

Barometer 1026.5 mb

Date/timePositionNaut miles runAvg speedWind from/ knotsBaromVisibWave heightAir tempDewpointWater temp
2014-Oct-01 04:00N 38°24' W 021°19'1 0.3 1026.5
2014-Oct-01 02:00N 38°24' W 021°20'0 0.5 1026.8
2014-Oct-01 01:00N 38°23' W 021°20'1 0.6 1026.8
2014-Sep-30 23:00N 38°23' W 021°18'0 0.2 1026.7
2014-Sep-30 22:00N 38°23' W 021°18'1 0.9 1026.3
2014-Sep-30 21:00N 38°24' W 021°17'1 0.5 1026.1
2014-Sep-30 19:00N 38°24' W 021°19'1 0.9 1025.2
2014-Sep-30 18:00N 38°23' W 021°19'1 0.5 1025.0
2014-Sep-30 16:00N 38°22' W 021°19'0 0.0 1024.8
2014-Sep-30 15:00N 38°22' W 021°19'1 1.3 1024.7
2014-Sep-30 14:00N 38°21' W 021°20'1 0.7 1025.0
2014-Sep-30 13:00N 38°20' W 021°21'0 0.2 1025.2
2014-Sep-30 12:00N 38°20' W 021°21'1 1.4 1025.3
2014-Sep-30 11:00N 38°19' W 021°20'0 0.4 1025.2
2014-Sep-30 10:00N 38°19' W 021°20'1 0.4 1025.0
2014-Sep-30 08:00N 38°18' W 021°20'0 0.5 1024.3
2014-Sep-30 07:00N 38°17' W 021°20'1 1.3 1024.0
2014-Sep-30 06:00N 38°17' W 021°18'1 0.6 1023.8
2014-Sep-30 05:00N 38°16' W 021°19'0 0.1 1023.8
2014-Sep-30 04:00N 38°16' W 021°19'0 0.2 1024.0
2014-Sep-30 03:00N 38°16' W 021°19'0 0.3 1024.3
2014-Sep-30 02:00N 38°16' W 021°19'0 0.0 1024.8
2014-Sep-30 00:00N 38°16' W 021°19'1 0.7 1025.1
2014-Sep-29 23:00N 38°16' W 021°20'0 0.3 1025.1
2014-Sep-29 22:00N 38°16' W 021°20'0 0.1 1025.1
2014-Sep-29 21:00N 38°16' W 021°20'0 0.3 1025.0
2014-Sep-29 20:00N 38°15' W 021°20'0 0.4 1024.5
2014-Sep-29 19:00N 38°15' W 021°20'1 0.5 1024.1
2014-Sep-29 18:00N 38°15' W 021°20'0 0.2 1023.9
2014-Sep-29 16:00N 38°14' W 021°20'1 0.5 1024.0
2014-Sep-29 15:00N 38°14' W 021°21'0 0.0 1024.1
2014-Sep-29 14:00N 38°14' W 021°21'0 0.2 1024.5
2014-Sep-29 12:00N 38°14' W 021°20'0 0.1 1024.8
2014-Sep-29 11:00N 38°14' W 021°20'0 0.4 1024.5
2014-Sep-29 10:00N 38°13' W 021°20'0 0.0 1024.4
2014-Sep-29 09:00N 38°13' W 021°20'0 0.2 1024.2
2014-Sep-29 08:00N 38°13' W 021°20'0 0.4 1024.0
2014-Sep-29 07:00N 38°13' W 021°19'1 0.6 1023.6
2014-Sep-29 06:00N 38°13' W 021°19'0 0.4 1023.0
2014-Sep-29 05:00N 38°13' W 021°19'0 0.1 1022.8
2014-Sep-29 04:00N 38°13' W 021°19'0 0.1 1023.0
2014-Sep-29 02:00N 38°14' W 021°19'0 0.1 1023.7
2014-Sep-28 23:00N 38°13' W 021°20'1 0.5 1024.4
2014-Sep-28 22:00N 38°14' W 021°20'1 0.3 1024.2
2014-Sep-28 20:00N 38°14' W 021°20'0 0.4 1023.4
2014-Sep-28 19:00N 38°13' W 021°20'0 0.1 1023.1
2014-Sep-28 18:00N 38°13' W 021°20'0 0.3 1022.8
2014-Sep-28 17:00N 38°13' W 021°20'0 0.5 1022.6
2014-Sep-28 16:00N 38°14' W 021°20'1 0.4 1022.8
2014-Sep-28 14:00N 38°13' W 021°20'0 0.1 1023.2
2014-Sep-28 12:00N 38°13' W 021°20'0 0.3 1023.6
2014-Sep-28 11:00N 38°13' W 021°21'1 0.5 1024.0
2014-Sep-28 10:00N 38°14' W 021°21'0 0.0 1023.6
2014-Sep-28 09:00N 38°14' W 021°21'0 0.0 1023.2
2014-Sep-28 08:00N 38°14' W 021°21'0 0.2 1022.8
2014-Sep-28 06:00N 38°14' W 021°22'0 0.2 1022.0
2014-Sep-28 05:00N 38°14' W 021°22'0 0.3 1022.0
2014-Sep-28 04:00N 38°14' W 021°22'1 0.7 1022.3
2014-Sep-28 03:00N 38°14' W 021°23'1 0.4 1022.3
2014-Sep-28 00:00N 38°14' W 021°24'0 0.0 1023.1
2014-Sep-27 23:00N 38°14' W 021°24'0 0.0 1023.3
2014-Sep-27 22:00N 38°14' W 021°24'0 0.0 1023.3
2014-Sep-27 21:00N 38°14' W 021°24'0 0.5 1022.9
2014-Sep-27 20:00N 38°14' W 021°24'0 0.2 1022.6
2014-Sep-27 19:00N 38°14' W 021°24'0 0.3 1022.2
2014-Sep-27 18:00N 38°14' W 021°24'0 0.1 1022.0
2014-Sep-27 17:00N 38°14' W 021°24'0 0.4 1021.7
2014-Sep-27 16:00N 38°15' W 021°24'1 0.4 1021.7
2014-Sep-27 14:00N 38°15' W 021°25'1 0.3 1021.9
2014-Sep-27 11:00N 38°15' W 021°26'1 0.5 1022.5
2014-Sep-27 10:00N 38°16' W 021°26'1 1.4 1022.4
2014-Sep-27 09:00N 38°15' W 021°27'0 0.0 1022.2
2014-Sep-27 08:00N 38°15' W 021°27'1 0.8 1021.7
2014-Sep-27 07:00N 38°15' W 021°26'0 0.1 1021.5
2014-Sep-27 06:00N 38°15' W 021°27'0 0.2 1021.1
2014-Sep-27 05:00N 38°16' W 021°26'0 0.1 1021.2
2014-Sep-27 04:00N 38°16' W 021°27'0 0.1 1021.3
2014-Sep-27 03:00N 38°16' W 021°27'0 0.0 1021.6
2014-Sep-27 02:00N 38°16' W 021°27'0 0.1 1022.2
2014-Sep-26 22:00N 38°16' W 021°26'1 0.3 1023.2
2014-Sep-26 20:00N 38°16' W 021°26'0 0.3 1022.9
2014-Sep-26 19:00N 38°17' W 021°26'0 0.2 1022.7
2014-Sep-26 18:00N 38°17' W 021°26'0 0.1 1022.6
2014-Sep-26 17:00N 38°17' W 021°26'0 0.3 1022.6
2014-Sep-26 16:00N 38°17' W 021°26'1 0.2 1022.8
2014-Sep-26 13:00N 38°17' W 021°27'1 0.8 1024.2
2014-Sep-26 12:00N 38°17' W 021°26'1 0.8 1024.3
2014-Sep-26 11:00N 38°17' W 021°27'0 0.0 1024.5
2014-Sep-26 10:00N 38°17' W 021°27'1 0.4 1024.4
2014-Sep-26 08:00N 38°17' W 021°26'0 0.5 1023.7
2014-Sep-26 07:00N 38°17' W 021°26'1 1.2 1023.2
2014-Sep-26 06:00N 38°17' W 021°24'0 0.3 1023.0
2014-Sep-26 05:00N 38°17' W 021°24'1 0.3 1022.8
2014-Sep-26 03:00N 38°18' W 021°24'1 0.1 1023.4
2014-Sep-25 23:00N 38°18' W 021°23'0 0.4 1024.2
2014-Sep-25 22:00N 38°18' W 021°23'0 0.0 1024.4
2014-Sep-25 21:00N 38°18' W 021°23'0 0.3 1024.2
2014-Sep-25 20:00N 38°18' W 021°23'2 1.0 1023.7
2014-Sep-25 18:00N 38°19' W 021°21'1 0.4 1023.4
2014-Sep-25 16:00N 38°19' W 021°21'1 0.6 1023.5
2014-Sep-25 15:00N 38°19' W 021°21'0 0.0 1023.9
2014-Sep-25 13:00N 38°19' W 021°21'1 0.7 1024.8
2014-Sep-25 12:00N 38°19' W 021°21'1 0.5 1025.0
2014-Sep-25 10:00N 38°19' W 021°20'0 0.2 1025.0
2014-Sep-25 08:00N 38°19' W 021°19'2 1.5 1024.4
2014-Sep-25 07:00N 38°19' W 021°17'1 0.9 1024.0
2014-Sep-25 06:00N 38°20' W 021°17'2 1.6 1024.2
2014-Sep-25 05:00N 38°22' W 021°17'0 0.2 1024.4
2014-Sep-25 03:00N 38°22' W 021°17'1 0.2 1025.5
2014-Sep-24 23:00N 38°22' W 021°17'1 1.2 1027.1
2014-Sep-24 22:00N 38°22' W 021°15'1 0.7 1027.1
2014-Sep-24 21:00N 38°23' W 021°14'1 0.6 1026.9
2014-Sep-24 20:00N 38°22' W 021°14'0 0.1 1026.5
2014-Sep-24 19:00N 38°22' W 021°14'1 0.5 1026.3
2014-Sep-24 17:00N 38°22' W 021°12'0 0.3 1026.0
2014-Sep-24 16:00N 38°22' W 021°12'1 0.9 1026.1
2014-Sep-24 15:00N 38°22' W 021°11'1 0.6 1026.6
2014-Sep-24 14:00N 38°22' W 021°10'0 0.0 1026.7
2014-Sep-24 13:00N 38°22' W 021°10'1 0.9 1027.2
2014-Sep-24 12:00N 38°22' W 021°09'1 0.8 1027.3
2014-Sep-24 11:00N 38°22' W 021°08'0 0.0 1027.5
2014-Sep-24 10:00N 38°22' W 021°08'0 0.3 1027.4
2014-Sep-24 09:00N 38°22' W 021°09'2 0.4 1027.0
2014-Sep-24 05:00N 38°24' W 021°08'1 0.5 1026.1
2014-Sep-24 03:00N 38°24' W 021°07'0 0.0 1026.3
2014-Sep-24 02:00N 38°24' W 021°07'1 0.3 1026.7
2014-Sep-23 23:00N 38°23' W 021°06'1 1.3 1027.0
2014-Sep-23 22:00N 38°24' W 021°05'1 1.1 1026.8
2014-Sep-23 21:00N 38°23' W 021°03'0 0.2 1026.7
2014-Sep-23 19:00N 38°23' W 021°03'1 0.6 1025.9
2014-Sep-23 17:00N 38°23' W 021°02'1 1.3 1025.2
2014-Sep-23 16:00N 38°24' W 021°01'0 0.4 1025.0
2014-Sep-23 15:00N 38°25' W 021°01'1 0.7 1025.2
2014-Sep-23 13:00N 38°26' W 020°60'0 0.4 1025.5
2014-Sep-23 12:00N 38°26' W 020°60'0 0.4 1025.6
2014-Sep-23 11:00N 38°26' W 021°00'0 0.2 1025.5
2014-Sep-23 10:00N 38°26' W 020°60'0 0.1 1025.3
2014-Sep-23 09:00N 38°26' W 020°60'1 0.4 1024.9
2014-Sep-23 07:00N 38°25' W 021°01'0 0.3 1024.1
2014-Sep-23 06:00N 38°25' W 021°00'0 0.5 1023.5
2014-Sep-23 05:00N 38°25' W 020°60'0 0.0 1023.2
2014-Sep-23 04:00N 38°25' W 020°60'2 0.8 1023.1
2014-Sep-23 02:00N 38°25' W 020°58'0 0.0 1023.4
2014-Sep-22 23:00N 38°25' W 020°58'1 1.3 1023.5
2014-Sep-22 22:00N 38°25' W 020°57'1 0.7 1023.3
2014-Sep-22 21:00N 38°25' W 020°56'0 0.4 1022.8
2014-Sep-22 20:00N 38°25' W 020°56'1 0.5 1022.1
2014-Sep-22 18:00N 38°25' W 020°55'0 0.0 1021.4
2014-Sep-22 17:00N 38°25' W 020°55'0 0.3 1021.2
2014-Sep-22 16:00N 38°26' W 020°55'0 0.1 1021.2
2014-Sep-22 15:00N 38°26' W 020°55'0 0.2 1021.3
2014-Sep-22 14:00N 38°26' W 020°55'0 0.1 1021.3
2014-Sep-22 12:00N 38°26' W 020°55'1 0.7 1021.0
2014-Sep-22 11:00N 38°25' W 020°55'1 0.4 1020.8
2014-Sep-22 08:00N 38°24' W 020°54'1 0.4 1019.6
2014-Sep-22 05:00N 38°24' W 020°53'1 1.1 1018.1
2014-Sep-22 04:00N 38°24' W 020°51'1 0.6 1018.0
2014-Sep-22 02:00N 38°25' W 020°51'1 0.4 1018.3
2014-Sep-21 23:00N 38°26' W 020°50'0 0.3 1018.7
2014-Sep-21 22:00N 38°26' W 020°50'0 0.3 1018.9
2014-Sep-21 21:00N 38°26' W 020°50'0 0.3 1018.8
2014-Sep-21 20:00N 38°26' W 020°51'0 0.2 1018.4
2014-Sep-21 18:00N 38°26' W 020°51'0 0.3 1017.9
2014-Sep-21 17:00N 38°26' W 020°51'0 0.4 1017.9
2014-Sep-21 16:00N 38°27' W 020°51'0 0.0 1017.9
2014-Sep-21 15:00N 38°27' W 020°51'0 0.3 1018.0
2014-Sep-21 14:00N 38°27' W 020°51'0 0.1 1018.5
2014-Sep-21 13:00N 38°27' W 020°51'1 0.5 1018.8
2014-Sep-21 12:00N 38°27' W 020°50'0 0.4 1018.8
2014-Sep-21 11:00N 38°27' W 020°50'0 0.0 1018.8
2014-Sep-21 10:00N 38°27' W 020°50'1 0.8 1018.7
2014-Sep-21 09:00N 38°26' W 020°50'1 0.9 1018.2
2014-Sep-21 08:00N 38°27' W 020°49'0 0.4 1018.0
2014-Sep-21 07:00N 38°26' W 020°49'0 0.4 1017.5
2014-Sep-21 06:00N 38°27' W 020°49'1 0.7 1017.2
2014-Sep-21 05:00N 38°27' W 020°49'0 0.3 1016.9
2014-Sep-21 04:00N 38°27' W 020°49'   1016.7
Track history (hours):
 
Tides and Currents Weather Stations Pressure Air Temp Water Temp Dewpoint Dewpoint Depression Visibility Wind Speed Wind Dir Waves Ship Positions

Drifting buoy 41560

Last reported at 2014-Oct-01 04:00 UTC. Time now 2014-Oct-01 06:01 UTC.
Position N 38°24' W 021°19'.

Barometer 1026.5 mb

Date/timePositionNaut miles runAvg speedWind from/ knotsBaromVisibWave heightAir tempDewpointWater temp
2014-Oct-01 04:00N 38°24' W 021°19'1 0.3 1026.5
2014-Oct-01 02:00N 38°24' W 021°20'0 0.5 1026.8
2014-Oct-01 01:00N 38°23' W 021°20'1 0.6 1026.8
2014-Sep-30 23:00N 38°23' W 021°18'0 0.2 1026.7
2014-Sep-30 22:00N 38°23' W 021°18'1 0.9 1026.3
2014-Sep-30 21:00N 38°24' W 021°17'1 0.5 1026.1
2014-Sep-30 19:00N 38°24' W 021°19'1 0.9 1025.2
2014-Sep-30 18:00N 38°23' W 021°19'1 0.5 1025.0
2014-Sep-30 16:00N 38°22' W 021°19'0 0.0 1024.8
2014-Sep-30 15:00N 38°22' W 021°19'1 1.3 1024.7
2014-Sep-30 14:00N 38°21' W 021°20'1 0.7 1025.0
2014-Sep-30 13:00N 38°20' W 021°21'0 0.2 1025.2
2014-Sep-30 12:00N 38°20' W 021°21'1 1.4 1025.3
2014-Sep-30 11:00N 38°19' W 021°20'0 0.4 1025.2
2014-Sep-30 10:00N 38°19' W 021°20'1 0.4 1025.0
2014-Sep-30 08:00N 38°18' W 021°20'0 0.5 1024.3
2014-Sep-30 07:00N 38°17' W 021°20'1 1.3 1024.0
2014-Sep-30 06:00N 38°17' W 021°18'1 0.6 1023.8
2014-Sep-30 05:00N 38°16' W 021°19'0 0.1 1023.8
2014-Sep-30 04:00N 38°16' W 021°19'0 0.2 1024.0
2014-Sep-30 03:00N 38°16' W 021°19'0 0.3 1024.3
2014-Sep-30 02:00N 38°16' W 021°19'0 0.0 1024.8
2014-Sep-30 00:00N 38°16' W 021°19'1 0.7 1025.1
2014-Sep-29 23:00N 38°16' W 021°20'0 0.3 1025.1
2014-Sep-29 22:00N 38°16' W 021°20'0 0.1 1025.1
2014-Sep-29 21:00N 38°16' W 021°20'0 0.3 1025.0
2014-Sep-29 20:00N 38°15' W 021°20'0 0.4 1024.5
2014-Sep-29 19:00N 38°15' W 021°20'1 0.5 1024.1
2014-Sep-29 18:00N 38°15' W 021°20'0 0.2 1023.9
2014-Sep-29 16:00N 38°14' W 021°20'1 0.5 1024.0
2014-Sep-29 15:00N 38°14' W 021°21'0 0.0 1024.1
2014-Sep-29 14:00N 38°14' W 021°21'0 0.2 1024.5
2014-Sep-29 12:00N 38°14' W 021°20'0 0.1 1024.8
2014-Sep-29 11:00N 38°14' W 021°20'0 0.4 1024.5
2014-Sep-29 10:00N 38°13' W 021°20'0 0.0 1024.4
2014-Sep-29 09:00N 38°13' W 021°20'0 0.2 1024.2
2014-Sep-29 08:00N 38°13' W 021°20'0 0.4 1024.0
2014-Sep-29 07:00N 38°13' W 021°19'1 0.6 1023.6
2014-Sep-29 06:00N 38°13' W 021°19'0 0.4 1023.0
2014-Sep-29 05:00N 38°13' W 021°19'0 0.1 1022.8
2014-Sep-29 04:00N 38°13' W 021°19'0 0.1 1023.0
2014-Sep-29 02:00N 38°14' W 021°19'0 0.1 1023.7
2014-Sep-28 23:00N 38°13' W 021°20'1 0.5 1024.4
2014-Sep-28 22:00N 38°14' W 021°20'1 0.3 1024.2
2014-Sep-28 20:00N 38°14' W 021°20'0 0.4 1023.4
2014-Sep-28 19:00N 38°13' W 021°20'0 0.1 1023.1
2014-Sep-28 18:00N 38°13' W 021°20'0 0.3 1022.8
2014-Sep-28 17:00N 38°13' W 021°20'0 0.5 1022.6
2014-Sep-28 16:00N 38°14' W 021°20'1 0.4 1022.8
2014-Sep-28 14:00N 38°13' W 021°20'0 0.1 1023.2
2014-Sep-28 12:00N 38°13' W 021°20'0 0.3 1023.6
2014-Sep-28 11:00N 38°13' W 021°21'1 0.5 1024.0
2014-Sep-28 10:00N 38°14' W 021°21'0 0.0 1023.6
2014-Sep-28 09:00N 38°14' W 021°21'0 0.0 1023.2
2014-Sep-28 08:00N 38°14' W 021°21'0 0.2 1022.8
2014-Sep-28 06:00N 38°14' W 021°22'0 0.2 1022.0
2014-Sep-28 05:00N 38°14' W 021°22'0 0.3 1022.0
2014-Sep-28 04:00N 38°14' W 021°22'1 0.7 1022.3
2014-Sep-28 03:00N 38°14' W 021°23'1 0.4 1022.3
2014-Sep-28 00:00N 38°14' W 021°24'0 0.0 1023.1
2014-Sep-27 23:00N 38°14' W 021°24'0 0.0 1023.3
2014-Sep-27 22:00N 38°14' W 021°24'0 0.0 1023.3
2014-Sep-27 21:00N 38°14' W 021°24'0 0.5 1022.9
2014-Sep-27 20:00N 38°14' W 021°24'0 0.2 1022.6
2014-Sep-27 19:00N 38°14' W 021°24'0 0.3 1022.2
2014-Sep-27 18:00N 38°14' W 021°24'0 0.1 1022.0
2014-Sep-27 17:00N 38°14' W 021°24'0 0.4 1021.7
2014-Sep-27 16:00N 38°15' W 021°24'1 0.4 1021.7
2014-Sep-27 14:00N 38°15' W 021°25'1 0.3 1021.9
2014-Sep-27 11:00N 38°15' W 021°26'1 0.5 1022.5
2014-Sep-27 10:00N 38°16' W 021°26'1 1.4 1022.4
2014-Sep-27 09:00N 38°15' W 021°27'0 0.0 1022.2
2014-Sep-27 08:00N 38°15' W 021°27'1 0.8 1021.7
2014-Sep-27 07:00N 38°15' W 021°26'0 0.1 1021.5
2014-Sep-27 06:00N 38°15' W 021°27'0 0.2 1021.1
2014-Sep-27 05:00N 38°16' W 021°26'0 0.1 1021.2
2014-Sep-27 04:00N 38°16' W 021°27'0 0.1 1021.3
2014-Sep-27 03:00N 38°16' W 021°27'0 0.0 1021.6
2014-Sep-27 02:00N 38°16' W 021°27'0 0.1 1022.2
2014-Sep-26 22:00N 38°16' W 021°26'1 0.3 1023.2
2014-Sep-26 20:00N 38°16' W 021°26'0 0.3 1022.9
2014-Sep-26 19:00N 38°17' W 021°26'0 0.2 1022.7
2014-Sep-26 18:00N 38°17' W 021°26'0 0.1 1022.6
2014-Sep-26 17:00N 38°17' W 021°26'0 0.3 1022.6
2014-Sep-26 16:00N 38°17' W 021°26'1 0.2 1022.8
2014-Sep-26 13:00N 38°17' W 021°27'1 0.8 1024.2
2014-Sep-26 12:00N 38°17' W 021°26'1 0.8 1024.3
2014-Sep-26 11:00N 38°17' W 021°27'0 0.0 1024.5
2014-Sep-26 10:00N 38°17' W 021°27'1 0.4 1024.4
2014-Sep-26 08:00N 38°17' W 021°26'0 0.5 1023.7
2014-Sep-26 07:00N 38°17' W 021°26'1 1.2 1023.2
2014-Sep-26 06:00N 38°17' W 021°24'0 0.3 1023.0
2014-Sep-26 05:00N 38°17' W 021°24'1 0.3 1022.8
2014-Sep-26 03:00N 38°18' W 021°24'1 0.1 1023.4
2014-Sep-25 23:00N 38°18' W 021°23'0 0.4 1024.2
2014-Sep-25 22:00N 38°18' W 021°23'0 0.0 1024.4
2014-Sep-25 21:00N 38°18' W 021°23'0 0.3 1024.2
2014-Sep-25 20:00N 38°18' W 021°23'2 1.0 1023.7
2014-Sep-25 18:00N 38°19' W 021°21'1 0.4 1023.4
2014-Sep-25 16:00N 38°19' W 021°21'1 0.6 1023.5
2014-Sep-25 15:00N 38°19' W 021°21'0 0.0 1023.9
2014-Sep-25 13:00N 38°19' W 021°21'1 0.7 1024.8
2014-Sep-25 12:00N 38°19' W 021°21'1 0.5 1025.0
2014-Sep-25 10:00N 38°19' W 021°20'0 0.2 1025.0
2014-Sep-25 08:00N 38°19' W 021°19'2 1.5 1024.4
2014-Sep-25 07:00N 38°19' W 021°17'1 0.9 1024.0
2014-Sep-25 06:00N 38°20' W 021°17'2 1.6 1024.2
2014-Sep-25 05:00N 38°22' W 021°17'0 0.2 1024.4
2014-Sep-25 03:00N 38°22' W 021°17'1 0.2 1025.5
2014-Sep-24 23:00N 38°22' W 021°17'1 1.2 1027.1
2014-Sep-24 22:00N 38°22' W 021°15'1 0.7 1027.1
2014-Sep-24 21:00N 38°23' W 021°14'1 0.6 1026.9
2014-Sep-24 20:00N 38°22' W 021°14'0 0.1 1026.5
2014-Sep-24 19:00N 38°22' W 021°14'1 0.5 1026.3
2014-Sep-24 17:00N 38°22' W 021°12'0 0.3 1026.0
2014-Sep-24 16:00N 38°22' W 021°12'1 0.9 1026.1
2014-Sep-24 15:00N 38°22' W 021°11'1 0.6 1026.6
2014-Sep-24 14:00N 38°22' W 021°10'0 0.0 1026.7
2014-Sep-24 13:00N 38°22' W 021°10'1 0.9 1027.2
2014-Sep-24 12:00N 38°22' W 021°09'1 0.8 1027.3
2014-Sep-24 11:00N 38°22' W 021°08'0 0.0 1027.5
2014-Sep-24 10:00N 38°22' W 021°08'0 0.3 1027.4
2014-Sep-24 09:00N 38°22' W 021°09'2 0.4 1027.0
2014-Sep-24 05:00N 38°24' W 021°08'1 0.5 1026.1
2014-Sep-24 03:00N 38°24' W 021°07'0 0.0 1026.3
2014-Sep-24 02:00N 38°24' W 021°07'1 0.3 1026.7
2014-Sep-23 23:00N 38°23' W 021°06'1 1.3 1027.0
2014-Sep-23 22:00N 38°24' W 021°05'1 1.1 1026.8
2014-Sep-23 21:00N 38°23' W 021°03'0 0.2 1026.7
2014-Sep-23 19:00N 38°23' W 021°03'1 0.6 1025.9
2014-Sep-23 17:00N 38°23' W 021°02'1 1.3 1025.2
2014-Sep-23 16:00N 38°24' W 021°01'0 0.4 1025.0
2014-Sep-23 15:00N 38°25' W 021°01'1 0.7 1025.2
2014-Sep-23 13:00N 38°26' W 020°60'0 0.4 1025.5
2014-Sep-23 12:00N 38°26' W 020°60'0 0.4 1025.6
2014-Sep-23 11:00N 38°26' W 021°00'0 0.2 1025.5
2014-Sep-23 10:00N 38°26' W 020°60'0 0.1 1025.3
2014-Sep-23 09:00N 38°26' W 020°60'1 0.4 1024.9
2014-Sep-23 07:00N 38°25' W 021°01'0 0.3 1024.1
2014-Sep-23 06:00N 38°25' W 021°00'0 0.5 1023.5
2014-Sep-23 05:00N 38°25' W 020°60'0 0.0 1023.2
2014-Sep-23 04:00N 38°25' W 020°60'2 0.8 1023.1
2014-Sep-23 02:00N 38°25' W 020°58'0 0.0 1023.4
2014-Sep-22 23:00N 38°25' W 020°58'1 1.3 1023.5
2014-Sep-22 22:00N 38°25' W 020°57'1 0.7 1023.3
2014-Sep-22 21:00N 38°25' W 020°56'0 0.4 1022.8
2014-Sep-22 20:00N 38°25' W 020°56'1 0.5 1022.1
2014-Sep-22 18:00N 38°25' W 020°55'0 0.0 1021.4
2014-Sep-22 17:00N 38°25' W 020°55'0 0.3 1021.2
2014-Sep-22 16:00N 38°26' W 020°55'0 0.1 1021.2
2014-Sep-22 15:00N 38°26' W 020°55'0 0.2 1021.3
2014-Sep-22 14:00N 38°26' W 020°55'0 0.1 1021.3
2014-Sep-22 12:00N 38°26' W 020°55'1 0.7 1021.0
2014-Sep-22 11:00N 38°25' W 020°55'1 0.4 1020.8
2014-Sep-22 08:00N 38°24' W 020°54'1 0.4 1019.6
2014-Sep-22 05:00N 38°24' W 020°53'1 1.1 1018.1
2014-Sep-22 04:00N 38°24' W 020°51'1 0.6 1018.0
2014-Sep-22 02:00N 38°25' W 020°51'1 0.4 1018.3
2014-Sep-21 23:00N 38°26' W 020°50'0 0.3 1018.7
2014-Sep-21 22:00N 38°26' W 020°50'0 0.3 1018.9
2014-Sep-21 21:00N 38°26' W 020°50'0 0.3 1018.8
2014-Sep-21 20:00N 38°26' W 020°51'0 0.2 1018.4
2014-Sep-21 18:00N 38°26' W 020°51'0 0.3 1017.9
2014-Sep-21 17:00N 38°26' W 020°51'0 0.4 1017.9
2014-Sep-21 16:00N 38°27' W 020°51'0 0.0 1017.9
2014-Sep-21 15:00N 38°27' W 020°51'0 0.3 1018.0
2014-Sep-21 14:00N 38°27' W 020°51'0 0.1 1018.5
2014-Sep-21 13:00N 38°27' W 020°51'1 0.5 1018.8
2014-Sep-21 12:00N 38°27' W 020°50'0 0.4 1018.8
2014-Sep-21 11:00N 38°27' W 020°50'0 0.0 1018.8
2014-Sep-21 10:00N 38°27' W 020°50'1 0.8 1018.7
2014-Sep-21 09:00N 38°26' W 020°50'1 0.9 1018.2
2014-Sep-21 08:00N 38°27' W 020°49'0 0.4 1018.0
2014-Sep-21 07:00N 38°26' W 020°49'0 0.4 1017.5
2014-Sep-21 06:00N 38°27' W 020°49'1 0.7 1017.2
2014-Sep-21 05:00N 38°27' W 020°49'0 0.3 1016.9
2014-Sep-21 04:00N 38°27' W 020°49'   1016.7

Dump ship's entire track history